Time;durP1;ratioP1;P1;durP2;ratioP2;P2;SDS_P1;SDS_P2;PMS_P1;PMS_P2;Temp;Humidity;BMP_temperature;BMP_pressure;BME280_temperature;BME280_humidity;BME280_pressure;Samples;Min_cycle;Max_cycle;Signal;HPM_P1;HPM_P2
2023/10/01 00:01:00;;;;;;;2.92;1.50;;;;;;;21.06;55.42;100670.06;5032966;28;20500;-43
2023/10/01 00:03:27;;;;;;;3.20;1.60;;;;;;;21.04;55.86;100675.81;5033065;28;20490;-46
2023/10/01 00:05:53;;;;;;;2.70;1.50;;;;;;;20.85;56.33;100672.06;5032659;28;20075;-50
2023/10/01 00:08:20;;;;;;;3.17;1.63;;;;;;;20.85;56.28;100674.78;5032835;28;20026;-51
2023/10/01 00:10:46;;;;;;;3.83;1.70;;;;;;;20.99;56.48;100675.00;5032701;28;20030;-46
2023/10/01 00:13:14;;;;;;;3.55;1.40;;;;;;;20.91;57.11;100679.09;5032688;28;20053;-46
2023/10/01 00:15:40;;;;;;;3.33;1.45;;;;;;;20.92;57.38;100679.91;5032599;28;20029;-44
2023/10/01 00:18:06;;;;;;;3.17;1.50;;;;;;;20.84;56.13;100673.16;5032610;28;20367;-47
2023/10/01 00:20:33;;;;;;;3.00;1.70;;;;;;;20.94;56.42;100678.56;5032627;28;20025;-45
2023/10/01 00:23:03;;;;;;;3.17;1.35;;;;;;;21.06;56.53;100675.50;5032738;28;20541;-48
2023/10/01 00:25:31;;;;;;;3.13;1.38;;;;;;;21.09;56.37;100674.94;5032851;28;20057;-47
2023/10/01 00:27:58;;;;;;;2.70;1.58;;;;;;;21.01;56.61;100670.91;5032331;28;20057;-45
2023/10/01 00:30:24;;;;;;;2.85;1.23;;;;;;;20.95;56.61;100663.06;5032425;28;20117;-48
2023/10/01 00:32:51;;;;;;;3.40;1.40;;;;;;;20.96;56.85;100660.03;5033031;28;20028;-44
2023/10/01 00:35:17;;;;;;;4.70;1.70;;;;;;;20.87;57.29;100666.34;5032675;28;20486;-45
2023/10/01 00:37:44;;;;;;;3.85;1.33;;;;;;;20.74;57.50;100668.56;5032339;28;20560;-45
2023/10/01 00:40:11;;;;;;;4.00;1.83;;;;;;;20.65;56.83;100675.66;5032553;28;20355;-44
2023/10/01 00:42:38;;;;;;;3.53;2.00;;;;;;;20.60;58.03;100675.69;5032517;28;20562;-46
2023/10/01 00:45:14;;;;;;;5.72;1.95;;;;;;;20.56;59.11;100678.16;5032490;28;20032;-45
2023/10/01 00:47:46;;;;;;;4.32;1.92;;;;;;;20.62;58.31;100683.56;5032614;28;20041;-48
2023/10/01 00:50:16;;;;;;;8.93;2.38;;;;;;;20.66;58.50;100677.31;5032880;28;20091;-44
2023/10/01 00:52:44;;;;;;;4.68;1.77;;;;;;;20.62;58.99;100681.66;5032936;28;20061;-44
2023/10/01 00:55:13;;;;;;;5.32;2.30;;;;;;;20.69;58.71;100679.47;5032729;28;20025;-44
2023/10/01 00:57:41;;;;;;;5.30;2.92;;;;;;;20.80;58.02;100686.50;5032395;28;20048;-45
2023/10/01 01:00:16;;;;;;;3.00;1.95;;;;;;;20.79;58.08;100682.16;5033967;28;20026;-44
2023/10/01 01:03:27;;;;;;;4.82;1.92;;;;;;;20.66;57.95;100680.03;5036115;28;20029;-44
2023/10/01 01:05:37;;;;;;;6.70;1.98;;;;;;;20.62;57.37;100676.22;5033038;28;20033;-46
2023/10/01 01:08:22;;;;;;;6.20;2.35;;;;;;;20.47;58.31;100682.50;5036052;28;20026;-48
2023/10/01 01:10:51;;;;;;;7.18;2.50;;;;;;;20.29;58.15;100683.88;5035864;28;20041;-44
2023/10/01 01:13:17;;;;;;;10.27;2.42;;;;;;;20.22;58.45;100683.34;5035844;28;20136;-49
2023/10/01 01:15:51;;;;;;;5.68;2.28;;;;;;;20.15;59.19;100682.81;5035729;28;20025;-44
2023/10/01 01:18:21;;;;;;;7.07;2.42;;;;;;;20.09;60.00;100681.19;5036038;28;20047;-50
2023/10/01 01:20:48;;;;;;;6.43;2.25;;;;;;;19.97;59.19;100686.09;5035646;28;20029;-43
2023/10/01 01:23:19;;;;;;;6.28;2.45;;;;;;;19.80;59.71;100680.13;5018473;28;20136;-43
2023/10/01 01:25:49;;;;;;;6.43;2.47;;;;;;;19.65;60.25;100676.28;5035891;28;20031;-44
2023/10/01 01:28:24;;;;;;;7.97;3.40;;;;;;;19.56;61.57;100677.91;5035466;28;20028;-46
2023/10/01 01:30:53;;;;;;;8.05;3.05;;;;;;;19.39;62.53;100674.63;5035950;28;20065;-44
2023/10/01 01:33:26;;;;;;;6.18;2.72;;;;;;;19.35;61.96;100668.09;5035301;28;20055;-43
2023/10/01 01:35:54;;;;;;;6.38;3.17;;;;;;;19.30;62.88;100668.06;5035450;28;20021;-46
2023/10/01 01:38:21;;;;;;;7.80;3.40;;;;;;;19.13;63.11;100660.97;5035233;28;20115;-43
2023/10/01 01:40:50;;;;;;;10.02;3.42;;;;;;;19.06;63.90;100670.47;5035684;28;20033;-43
2023/10/01 01:43:30;;;;;;;7.32;3.80;;;;;;;18.89;64.84;100667.94;5035608;28;20377;-44
2023/10/01 01:46:00;;;;;;;6.40;3.45;;;;;;;18.70;66.07;100676.53;5035257;28;20053;-44
2023/10/01 01:48:37;;;;;;;14.25;4.28;;;;;;;18.63;66.66;100678.63;5035121;28;20030;-43
2023/10/01 01:51:06;;;;;;;13.00;4.53;;;;;;;18.44;67.53;100675.56;5035159;28;20381;-44
2023/10/01 01:53:35;;;;;;;11.43;3.80;;;;;;;18.40;67.31;100689.91;5035661;28;20032;-43
2023/10/01 01:56:10;;;;;;;9.63;3.85;;;;;;;18.43;66.98;100682.06;5035289;28;20088;-43
2023/10/01 01:58:40;;;;;;;5.78;3.30;;;;;;;18.32;66.28;100685.78;5035343;28;20047;-43
2023/10/01 02:03:44;;;;;;;9.15;4.07;;;;;;;18.30;67.42;100685.22;5035003;28;20025;-42
2023/10/01 02:06:10;;;;;;;12.07;3.65;;;;;;;18.18;67.94;100684.59;5035166;28;20080;-44
2023/10/01 02:11:20;;;;;;;10.85;4.15;;;;;;;18.15;69.90;100676.97;5033667;28;20034;-42
2023/10/01 02:13:50;;;;;;;13.98;5.35;;;;;;;17.88;71.05;100682.50;5034813;28;20025;-43
2023/10/01 02:21:43;;;;;;;12.43;5.22;;;;;;;17.79;71.67;100681.31;5034944;28;20063;-42
2023/10/01 02:24:14;;;;;;;19.63;5.53;;;;;;;17.75;72.57;100683.72;5034529;28;20116;-43
2023/10/01 02:26:46;;;;;;;13.30;5.10;;;;;;;17.63;72.71;100686.56;5034573;28;20138;-42
2023/10/01 02:29:13;;;;;;;14.95;5.90;;;;;;;17.52;73.76;100678.59;5034299;28;20030;-44
2023/10/01 02:31:48;;;;;;;12.25;5.32;;;;;;;17.52;74.38;100684.00;5034172;28;20112;-43
2023/10/01 02:34:18;;;;;;;18.15;5.65;;;;;;;17.50;73.99;100681.56;5034580;28;20029;-43
2023/10/01 02:36:44;;;;;;;15.73;5.60;;;;;;;17.44;74.30;100681.78;5034326;28;20450;-44
2023/10/01 02:39:19;;;;;;;16.63;6.07;;;;;;;17.47;74.36;100682.06;5034123;28;20487;-44
2023/10/01 02:42:09;;;;;;;16.00;5.65;;;;;;;17.26;75.19;100686.44;5034598;28;20091;-43
2023/10/01 02:44:34;;;;;;;18.90;6.13;;;;;;;17.12;75.55;100680.63;5033964;28;20034;-44
2023/10/01 02:47:16;;;;;;;22.35;6.68;;;;;;;17.03;76.40;100681.31;5034020;28;20462;-46
2023/10/01 02:49:52;;;;;;;19.80;7.05;;;;;;;16.99;77.16;100689.13;5034199;28;20033;-44
2023/10/01 02:52:22;;;;;;;17.63;7.32;;;;;;;16.78;78.80;100682.66;5034306;28;20154;-44
2023/10/01 02:54:54;;;;;;;17.67;7.25;;;;;;;16.83;78.39;100684.59;5034022;28;20140;-45
2023/10/01 02:57:24;;;;;;;27.30;8.63;;;;;;;16.75;79.62;100690.44;5033819;28;20021;-43
2023/10/01 03:02:38;;;;;;;23.67;8.50;;;;;;;16.93;79.76;100697.41;5033975;28;20505;-45
2023/10/01 03:05:08;;;;;;;28.00;8.68;;;;;;;16.84;80.40;100695.16;5033711;28;20025;-43
2023/10/01 03:07:45;;;;;;;26.98;9.82;;;;;;;16.62;81.25;100703.22;5016391;28;20155;-45
2023/10/01 03:10:25;;;;;;;22.83;8.88;;;;;;;16.62;81.60;100705.09;5034144;28;20056;-43
2023/10/01 03:12:56;;;;;;;26.35;8.65;;;;;;;16.55;82.05;100707.16;5033729;28;20125;-45
2023/10/01 03:15:24;;;;;;;27.48;9.75;;;;;;;16.44;82.21;100708.91;5033586;28;20425;-44
2023/10/01 03:28:32;;;;;;;27.65;8.52;;;;;;;16.29;83.48;100716.78;5033387;28;20580;-45
2023/10/01 03:31:09;;;;;;;30.45;10.13;;;;;;;16.26;83.01;100714.53;5033014;28;20129;-45
2023/10/01 03:33:39;;;;;;;27.85;9.48;;;;;;;16.20;83.15;100716.34;5033369;28;20027;-44
2023/10/01 03:36:10;;;;;;;24.92;9.88;;;;;;;16.19;82.97;100711.19;5033641;28;20025;-43
2023/10/01 03:38:44;;;;;;;26.23;9.13;;;;;;;16.17;83.02;100716.03;5032914;28;20049;-44
2023/10/01 03:41:52;;;;;;;32.35;10.23;;;;;;;16.15;83.50;100724.38;5016065;28;20524;-42
2023/10/01 03:44:09;;;;;;;27.65;10.63;;;;;;;16.22;83.41;100718.81;5030864;28;20379;-44
2023/10/01 03:46:45;;;;;;;21.08;9.20;;;;;;;16.18;83.14;100726.59;5033092;28;20053;-42
2023/10/01 03:49:44;;;;;;;19.70;9.50;;;;;;;16.23;82.87;100725.84;5033019;28;20493;-43
2023/10/01 03:52:04;;;;;;;36.13;10.85;;;;;;;16.14;83.03;100733.53;5032842;28;20038;-43
2023/10/01 03:57:17;;;;;;;22.13;8.97;;;;;;;16.22;83.20;100741.25;5033159;28;20037;-43
2023/10/01 03:59:54;;;;;;;25.25;10.25;;;;;;;16.18;83.20;100734.69;5032978;28;20026;-43
2023/10/01 04:02:28;;;;;;;31.48;9.68;;;;;;;16.15;83.60;100745.16;5032761;28;20022;-43
2023/10/01 04:04:58;;;;;;;29.40;9.90;;;;;;;16.23;83.25;100742.06;5032895;28;20493;-42
2023/10/01 04:07:45;;;;;;;18.60;8.77;;;;;;;16.09;83.26;100747.78;5033104;28;20037;-42
2023/10/01 04:10:34;;;;;;;28.85;10.27;;;;;;;16.02;83.97;100738.19;5032944;28;20103;-42
2023/10/01 04:13:00;;;;;;;35.38;11.77;;;;;;;15.83;84.95;100743.03;5032710;28;20080;-42
2023/10/01 04:15:27;;;;;;;31.13;11.32;;;;;;;15.89;84.51;100741.22;5032702;28;20026;-43
2023/10/01 04:20:48;;;;;;;36.63;12.18;;;;;;;15.88;84.68;100756.59;5032627;28;20045;-43
2023/10/01 04:23:31;;;;;;;30.48;11.30;;;;;;;15.80;85.04;100744.31;5032709;28;20131;-43
2023/10/01 04:26:00;;;;;;;24.20;10.60;;;;;;;15.87;84.86;100738.75;5032645;28;20022;-43
2023/10/01 04:28:31;;;;;;;32.95;11.13;;;;;;;15.80;85.11;100749.69;5032487;28;20494;-43
2023/10/01 04:30:57;;;;;;;31.08;10.82;;;;;;;15.88;84.83;100745.81;5032942;28;20412;-43
2023/10/01 04:33:23;;;;;;;25.88;10.55;;;;;;;15.87;85.16;100746.03;5032546;28;20029;-43
2023/10/01 04:35:58;;;;;;;34.10;11.48;;;;;;;15.69;85.70;100752.47;5035341;28;20030;-43
2023/10/01 04:38:29;;;;;;;29.00;11.38;;;;;;;15.81;85.34;100750.53;5036711;28;20042;-42
2023/10/01 04:40:57;;;;;;;34.28;11.45;;;;;;;15.82;85.51;100749.44;5036455;28;20128;-44
2023/10/01 04:43:26;;;;;;;25.30;9.77;;;;;;;15.81;85.14;100745.94;5036762;28;20493;-43
2023/10/01 04:45:52;;;;;;;21.60;9.27;;;;;;;15.77;85.35;100746.69;5036319;28;20064;-42
2023/10/01 04:48:23;;;;;;;28.88;10.50;;;;;;;15.73;85.22;100751.75;5036196;28;20029;-43
2023/10/01 04:50:54;;;;;;;26.23;10.30;;;;;;;15.82;84.98;100749.44;5036140;28;20030;-43
2023/10/01 04:53:25;;;;;;;26.17;9.80;;;;;;;15.75;84.88;100752.31;5036266;28;20026;-43
2023/10/01 04:56:01;;;;;;;22.58;9.90;;;;;;;15.74;84.74;100750.69;5036142;28;20040;-43
2023/10/01 04:58:36;;;;;;;31.05;11.65;;;;;;;15.70;85.28;100744.13;5036097;28;20489;-43
2023/10/01 05:01:11;;;;;;;32.83;11.43;;;;;;;15.61;85.69;100737.47;5037235;28;20033;-44
2023/10/01 05:03:39;;;;;;;31.38;11.18;;;;;;;15.56;85.69;100742.75;5036264;28;20056;-42
2023/10/01 05:06:20;;;;;;;31.65;10.93;;;;;;;15.62;85.55;100740.97;5035794;28;20037;-44
2023/10/01 05:08:56;;;;;;;25.58;11.52;;;;;;;15.43;86.46;100737.63;5035936;28;20104;-44
2023/10/01 05:11:29;;;;;;;28.08;10.23;;;;;;;15.43;86.28;100741.16;5035809;28;20021;-42
2023/10/01 05:13:58;;;;;;;31.67;11.13;;;;;;;15.65;85.61;100741.31;5035733;28;20052;-42
2023/10/01 05:16:30;;;;;;;27.70;10.68;;;;;;;15.61;86.19;100739.34;5035734;28;20038;-42
2023/10/01 05:19:10;;;;;;;31.25;10.95;;;;;;;15.51;86.12;100742.66;5035824;28;20155;-42
2023/10/01 05:21:47;;;;;;;32.50;11.60;;;;;;;15.57;86.29;100739.81;5049595;28;20103;-44
2023/10/01 05:24:36;;;;;;;25.42;10.52;;;;;;;15.40;86.41;100740.84;5035744;28;20051;-44
2023/10/01 05:27:08;;;;;;;23.90;10.35;;;;;;;15.47;86.39;100745.00;5035645;28;20025;-43
2023/10/01 05:29:36;;;;;;;29.58;12.15;;;;;;;15.41;86.55;100747.84;5035580;28;20026;-42
2023/10/01 05:32:03;;;;;;;24.77;10.27;;;;;;;15.51;86.33;100746.19;5035478;28;20083;-44
2023/10/01 05:34:31;;;;;;;30.13;11.55;;;;;;;15.61;86.16;100748.25;5035776;28;20036;-44
2023/10/01 05:37:45;;;;;;;35.47;11.05;;;;;;;15.47;86.84;100747.72;5035053;28;20041;-43
2023/10/01 05:39:59;;;;;;;26.73;11.38;;;;;;;15.56;86.43;100746.28;5031447;28;20449;-42
2023/10/01 05:42:28;;;;;;;29.23;10.43;;;;;;;15.44;86.78;100745.50;5035366;28;20057;-42
2023/10/01 05:44:56;;;;;;;23.40;10.20;;;;;;;15.37;87.13;100739.41;5035233;28;20467;-43
2023/10/01 05:47:23;;;;;;;32.08;10.60;;;;;;;15.41;87.20;100754.06;5035244;28;20029;-43
2023/10/01 05:49:53;;;;;;;34.22;11.52;;;;;;;15.23;87.32;100748.84;5035301;28;20254;-45
2023/10/01 05:52:23;;;;;;;31.75;10.68;;;;;;;15.29;87.42;100750.59;5035266;28;20029;-43
2023/10/01 05:54:55;;;;;;;25.48;10.88;;;;;;;15.24;87.48;100751.31;5035292;28;20141;-44
2023/10/01 05:57:21;;;;;;;28.63;11.25;;;;;;;15.45;87.09;100755.22;5035528;28;20528;-43
2023/10/01 05:59:57;;;;;;;29.23;11.82;;;;;;;15.41;87.22;100751.38;5035336;28;20032;-42
2023/10/01 06:02:47;;;;;;;35.35;12.02;;;;;;;15.29;87.68;100746.03;5035231;28;20056;-42
2023/10/01 06:05:33;;;;;;;31.77;10.65;;;;;;;15.24;88.15;100750.50;5034854;28;20014;-42
2023/10/01 06:08:14;;;;;;;40.70;13.27;;;;;;;15.21;87.79;100743.72;5034553;28;20025;-43
2023/10/01 06:11:06;;;;;;;40.08;11.52;;;;;;;15.21;87.82;100750.94;5034959;28;20103;-43
2023/10/01 06:13:39;;;;;;;33.08;11.02;;;;;;;15.19;87.71;100745.81;5034670;28;20022;-43
2023/10/01 06:16:16;;;;;;;19.88;9.25;;;;;;;15.28;87.44;100751.66;5034748;28;20029;-42
2023/10/01 06:18:50;;;;;;;33.45;10.93;;;;;;;15.16;87.44;100748.19;5034590;28;20483;-44
2023/10/01 06:21:23;;;;;;;22.43;9.70;;;;;;;15.29;86.69;100742.50;5049726;28;20171;-43
2023/10/01 06:23:50;;;;;;;29.17;10.13;;;;;;;15.27;86.43;100744.63;5034898;28;20084;-43
2023/10/01 06:26:39;;;;;;;32.10;10.45;;;;;;;15.05;87.40;100744.47;5034689;28;20099;-43
2023/10/01 06:29:13;;;;;;;22.65;10.55;;;;;;;15.15;87.58;100746.53;5034528;28;20033;-43
2023/10/01 06:31:48;;;;;;;27.42;10.35;;;;;;;15.02;87.86;100740.34;5034513;28;20030;-43
2023/10/01 06:34:24;;;;;;;34.88;10.45;;;;;;;15.14;87.49;100734.09;5034479;28;20025;-43
2023/10/01 06:37:01;;;;;;;30.15;10.95;;;;;;;14.94;88.21;100738.03;5034313;28;20036;-44
2023/10/01 06:39:33;;;;;;;23.75;9.98;;;;;;;15.03;87.97;100739.28;5034259;28;20037;-43
2023/10/01 06:42:20;;;;;;;27.52;10.95;;;;;;;14.93;88.16;100744.44;5034279;28;20025;-41
2023/10/01 06:44:48;;;;;;;24.83;10.27;;;;;;;14.95;88.63;100752.31;5034181;28;20473;-42
2023/10/01 06:47:22;;;;;;;28.45;10.05;;;;;;;15.04;88.34;100745.50;5034063;28;20056;-42
2023/10/01 06:49:57;;;;;;;21.83;8.88;;;;;;;14.88;88.60;100755.16;5034350;28;20485;-42
2023/10/01 06:52:34;;;;;;;23.42;9.65;;;;;;;15.02;88.28;100740.34;5034299;28;20060;-43
2023/10/01 06:55:04;;;;;;;25.23;9.15;;;;;;;14.87;89.22;100749.97;5034105;28;20151;-44
2023/10/01 06:57:33;;;;;;;29.88;10.50;;;;;;;15.05;88.35;100745.28;5033723;28;20474;-42
2023/10/01 07:00:00;;;;;;;25.80;9.57;;;;;;;15.02;88.51;100758.41;5033875;28;20026;-42
2023/10/01 07:02:27;;;;;;;25.85;10.38;;;;;;;15.14;88.16;100755.66;5033814;28;20021;-42
2023/10/01 07:04:58;;;;;;;22.85;9.88;;;;;;;15.16;88.19;100753.56;5033767;28;20029;-43
2023/10/01 07:07:31;;;;;;;24.98;10.38;;;;;;;15.20;88.09;100752.03;5033764;28;20397;-43
2023/10/01 07:10:00;;;;;;;25.67;9.77;;;;;;;15.15;88.26;100751.91;5033736;28;20071;-44
2023/10/01 07:12:27;;;;;;;35.17;10.38;;;;;;;15.15;87.91;100758.13;5033667;28;20037;-44
2023/10/01 07:14:53;;;;;;;26.63;9.80;;;;;;;15.11;88.50;100753.47;5034585;28;20032;-43
2023/10/01 07:17:25;;;;;;;25.50;10.50;;;;;;;15.09;88.50;100759.06;5033477;28;20025;-42
2023/10/01 07:20:01;;;;;;;24.90;9.75;;;;;;;15.14;88.77;100759.19;5033707;28;20058;-44
2023/10/01 07:22:30;;;;;;;23.45;9.85;;;;;;;15.11;88.43;100756.97;5033528;28;20061;-44
2023/10/01 07:24:59;;;;;;;29.65;11.60;;;;;;;15.13;88.49;100754.03;5033232;28;20033;-42
2023/10/01 07:27:27;;;;;;;31.67;11.25;;;;;;;15.15;88.58;100757.31;5033261;28;20033;-42
2023/10/01 07:29:54;;;;;;;30.60;11.30;;;;;;;15.20;88.31;100754.72;5033307;28;20036;-43
2023/10/01 07:32:23;;;;;;;30.10;10.57;;;;;;;15.17;87.94;100747.94;5033616;28;20032;-43
2023/10/01 07:34:58;;;;;;;23.10;9.68;;;;;;;15.20;87.33;100752.84;5033154;28;20501;-42
2023/10/01 07:37:26;;;;;;;31.10;10.13;;;;;;;15.10;87.46;100749.09;5033029;28;20183;-41
2023/10/01 07:39:56;;;;;;;27.02;9.05;;;;;;;15.09;87.55;100764.47;5032964;28;20087;-41
2023/10/01 07:42:23;;;;;;;22.98;8.82;;;;;;;15.26;86.28;100753.75;5033466;28;20030;-42
2023/10/01 07:44:50;;;;;;;20.98;7.97;;;;;;;15.15;86.43;100757.31;5033072;28;20057;-42
2023/10/01 07:47:28;;;;;;;24.67;9.05;;;;;;;14.97;87.03;100760.97;5033510;28;20096;-41
2023/10/01 07:50:12;;;;;;;25.88;9.18;;;;;;;14.95;86.97;100757.72;5033028;28;20080;-42
2023/10/01 07:52:41;;;;;;;25.33;9.15;;;;;;;14.91;87.35;100759.22;5033094;28;20040;-42
2023/10/01 07:58:16;;;;;;;24.17;8.82;;;;;;;14.95;86.81;100769.31;5033632;28;20041;-42
2023/10/01 08:00:41;;;;;;;18.30;7.35;;;;;;;14.94;87.05;100770.38;5032796;28;20026;-42
2023/10/01 08:05:50;;;;;;;24.83;8.30;;;;;;;15.05;86.71;100779.50;5033005;28;20028;-42
2023/10/01 08:08:35;;;;;;;19.40;8.70;;;;;;;15.00;86.78;100780.19;5032753;28;20053;-44
2023/10/01 08:11:55;;;;;;;22.60;8.68;;;;;;;15.07;86.73;100768.47;5032312;28;20465;-42
2023/10/01 08:13:55;;;;;;;21.33;9.02;;;;;;;15.07;86.26;100763.06;5032682;28;20029;-42
2023/10/01 08:16:25;;;;;;;22.08;8.50;;;;;;;14.98;86.88;100768.00;5032802;28;20413;-42
2023/10/01 08:18:57;;;;;;;17.58;7.70;;;;;;;14.79;87.94;100778.09;5032782;28;20021;-45
2023/10/01 08:21:36;;;;;;;28.40;9.07;;;;;;;14.87;87.66;100776.91;5032861;28;20109;-46
2023/10/01 08:24:18;;;;;;;23.63;8.55;;;;;;;14.77;87.97;100788.31;5032708;28;20036;-42
2023/10/01 08:27:12;;;;;;;25.88;10.38;;;;;;;14.69;88.67;100791.34;5032803;28;20073;-43
2023/10/01 08:32:24;;;;;;;24.17;8.30;;;;;;;14.96;87.78;100797.06;5033240;28;20071;-43
2023/10/01 08:35:05;;;;;;;22.17;8.25;;;;;;;14.92;87.62;100790.50;5033003;28;20038;-42
2023/10/01 08:37:37;;;;;;;19.42;8.00;;;;;;;14.80;87.59;100798.59;5032426;28;20521;-43
2023/10/01 08:40:13;;;;;;;19.63;8.35;;;;;;;14.97;87.27;100804.09;5032529;28;20068;-42
2023/10/01 08:42:44;;;;;;;17.90;7.65;;;;;;;15.09;87.09;100801.38;5032548;28;20482;-42
2023/10/01 08:45:12;;;;;;;22.77;9.38;;;;;;;15.14;86.57;100798.81;5032533;28;20395;-42
2023/10/01 08:47:39;;;;;;;16.02;7.05;;;;;;;15.08;86.55;100799.75;5032547;28;20037;-42
2023/10/01 08:50:45;;;;;;;17.33;8.30;;;;;;;15.05;86.56;100799.19;5032340;28;20057;-42
2023/10/01 08:53:12;;;;;;;17.35;7.78;;;;;;;14.93;87.04;100809.13;5029725;28;20045;-43
2023/10/01 09:00:49;;;;;;;17.83;7.32;;;;;;;15.13;85.85;100800.69;5032395;28;20021;-43
2023/10/01 09:03:28;;;;;;;20.45;8.40;;;;;;;15.03;86.54;100811.25;5032135;28;20052;-43
2023/10/01 09:06:04;;;;;;;19.95;7.93;;;;;;;15.17;86.17;100801.03;5032382;28;20032;-44
2023/10/01 09:08:32;;;;;;;18.77;8.10;;;;;;;15.12;86.27;100809.00;5032763;28;20026;-43
2023/10/01 09:11:13;;;;;;;20.15;8.23;;;;;;;15.01;86.53;100803.41;5032309;28;20029;-45
2023/10/01 09:14:50;;;;;;;22.52;8.35;;;;;;;15.12;86.22;100798.22;5032182;28;20033;-43
2023/10/01 09:16:49;;;;;;;20.05;8.90;;;;;;;14.94;86.74;100808.09;5031632;28;20398;-45
2023/10/01 09:19:42;;;;;;;16.67;8.48;;;;;;;14.91;87.15;100807.75;5032260;28;20029;-45
2023/10/01 09:22:22;;;;;;;23.02;9.50;;;;;;;15.00;87.16;100809.84;5035285;28;20030;-42
2023/10/01 09:25:01;;;;;;;25.27;9.00;;;;;;;14.97;86.80;100802.22;5035741;28;20025;-44
2023/10/01 09:27:32;;;;;;;23.17;9.15;;;;;;;14.98;87.12;100809.25;5035935;28;20033;-44
2023/10/01 09:32:55;;;;;;;19.95;9.43;;;;;;;14.95;87.12;100801.66;5035920;28;20071;-46
2023/10/01 09:35:38;;;;;;;26.20;9.13;;;;;;;14.96;87.28;100797.91;5035389;28;20478;-43
2023/10/01 09:38:12;;;;;;;24.10;8.75;;;;;;;15.12;87.06;100796.34;5035233;28;20088;-42
2023/10/01 09:40:42;;;;;;;23.40;8.73;;;;;;;15.09;86.79;100796.00;5035375;28;20049;-43
2023/10/01 09:43:18;;;;;;;22.20;9.23;;;;;;;15.03;87.33;100792.38;5035415;28;20072;-43
2023/10/01 09:45:48;;;;;;;21.25;8.13;;;;;;;15.01;87.24;100800.69;5035445;28;20022;-43
2023/10/01 09:48:33;;;;;;;18.27;9.13;;;;;;;14.88;87.71;100800.97;5035210;28;20021;-43
2023/10/01 09:51:08;;;;;;;18.20;8.07;;;;;;;14.96;87.75;100803.28;5035265;28;20029;-43
2023/10/01 09:53:50;;;;;;;17.80;7.55;;;;;;;15.10;87.10;100797.63;5035515;28;20052;-46
2023/10/01 09:56:27;;;;;;;19.90;8.27;;;;;;;15.00;87.48;100800.94;5035131;28;20104;-43
2023/10/01 09:59:11;;;;;;;22.08;8.45;;;;;;;15.14;87.08;100804.19;5034987;28;20107;-43
2023/10/01 10:01:39;;;;;;;17.85;7.53;;;;;;;14.95;87.55;100809.72;5035178;28;20021;-43
2023/10/01 10:04:08;;;;;;;17.85;9.00;;;;;;;14.94;87.26;100804.59;5035024;28;20025;-44
2023/10/01 10:06:36;;;;;;;21.38;8.75;;;;;;;14.94;87.18;100805.41;5035144;28;20017;-43
2023/10/01 10:09:04;;;;;;;24.58;8.70;;;;;;;14.99;87.05;100797.44;5034844;28;20423;-43
2023/10/01 10:11:40;;;;;;;17.45;7.80;;;;;;;15.03;86.26;100793.19;5034698;28;20049;-46
2023/10/01 10:14:27;;;;;;;18.65;7.68;;;;;;;15.00;86.72;100795.56;5034932;28;20475;-43
2023/10/01 10:17:00;;;;;;;28.45;9.57;;;;;;;14.85;87.09;100798.72;5034827;28;20470;-43
2023/10/01 10:19:31;;;;;;;17.50;7.72;;;;;;;14.86;87.33;100800.34;5034714;28;20056;-44
2023/10/01 10:24:30;;;;;;;19.55;7.15;;;;;;;14.89;87.38;100802.59;5034642;28;20088;-43
2023/10/01 10:27:01;;;;;;;15.38;6.85;;;;;;;14.82;87.22;100804.56;5034559;28;20178;-45
2023/10/01 10:30:00;;;;;;;20.00;7.65;;;;;;;14.84;86.81;100796.28;5034356;28;20505;-43
2023/10/01 10:32:31;;;;;;;15.35;6.55;;;;;;;14.77;86.55;100794.53;5033682;28;20025;-45
2023/10/01 10:35:04;;;;;;;14.23;6.78;;;;;;;14.90;85.92;100787.25;5034325;28;20025;-43
2023/10/01 10:37:36;;;;;;;17.30;7.95;;;;;;;14.91;86.36;100791.56;5034146;28;20056;-42
2023/10/01 10:40:13;;;;;;;18.45;8.15;;;;;;;14.88;86.24;100784.78;5034299;28;20040;-42
2023/10/01 10:43:08;;;;;;;16.40;8.30;;;;;;;14.91;86.07;100795.09;5034331;28;20022;-43
2023/10/01 10:45:45;;;;;;;12.40;6.55;;;;;;;14.74;86.29;100799.53;5034058;28;20063;-43
2023/10/01 10:48:21;;;;;;;14.93;6.60;;;;;;;14.63;86.77;100786.91;5034231;28;20033;-43
2023/10/01 10:50:57;;;;;;;19.58;8.00;;;;;;;14.57;86.76;100794.03;5034008;28;20403;-45
2023/10/01 10:53:42;;;;;;;15.43;6.72;;;;;;;14.54;86.93;100794.50;5033458;28;20029;-43
2023/10/01 10:56:15;;;;;;;19.63;7.63;;;;;;;14.56;86.77;100794.28;5034013;28;20045;-43
2023/10/01 10:58:53;;;;;;;15.10;7.43;;;;;;;14.50;86.72;100796.03;5033804;28;20033;-42
2023/10/01 11:01:20;;;;;;;13.20;6.15;;;;;;;14.37;87.05;100797.00;5033989;28;20057;-43
2023/10/01 11:03:57;;;;;;;15.25;7.30;;;;;;;14.40;86.65;100799.25;5034174;28;20508;-43
2023/10/01 11:06:39;;;;;;;13.38;7.07;;;;;;;14.30;86.89;100804.38;5033851;28;20397;-48
2023/10/01 11:09:25;;;;;;;20.52;7.78;;;;;;;14.31;86.78;100806.03;5035729;28;20029;-43
2023/10/01 11:12:21;;;;;;;11.77;6.00;;;;;;;14.26;87.01;100805.88;5033793;28;20370;-42
2023/10/01 11:15:19;;;;;;;13.50;6.57;;;;;;;14.19;87.07;100806.00;5017045;28;20374;-42
2023/10/01 11:17:49;;;;;;;14.00;6.95;;;;;;;14.28;86.85;100801.13;5034270;28;20095;-43
2023/10/01 11:20:24;;;;;;;15.57;7.22;;;;;;;14.08;87.94;100800.59;5033654;28;20025;-43
2023/10/01 11:22:54;;;;;;;12.55;6.95;;;;;;;14.08;88.25;100808.66;5033675;28;20036;-43
2023/10/01 11:25:24;;;;;;;15.38;7.30;;;;;;;14.49;86.97;100792.53;5033652;28;20478;-51
2023/10/01 11:28:05;;;;;;;19.92;7.72;;;;;;;14.04;89.49;100802.09;5033502;28;20394;-43
2023/10/01 11:30:42;;;;;;;16.42;7.43;;;;;;;13.98;89.86;100796.56;5033173;28;20034;-43
2023/10/01 11:33:13;;;;;;;14.68;7.43;;;;;;;13.99;89.02;100792.88;5033256;28;20060;-43
2023/10/01 11:35:59;;;;;;;19.20;7.47;;;;;;;14.02;89.94;100801.50;5033283;28;20025;-42
2023/10/01 11:38:28;;;;;;;22.17;7.60;;;;;;;13.93;90.48;100806.38;5033166;28;20491;-42
2023/10/01 11:41:13;;;;;;;23.20;7.97;;;;;;;13.97;90.52;100797.63;5032976;28;20065;-43
2023/10/01 11:44:09;;;;;;;17.65;7.50;;;;;;;13.94;90.39;100800.78;5033173;28;20021;-43
2023/10/01 11:46:38;;;;;;;18.65;8.25;;;;;;;13.78;91.48;100798.75;5033039;28;20490;-42
2023/10/01 11:49:11;;;;;;;20.55;7.90;;;;;;;13.94;91.55;100799.97;5033146;28;20029;-44
2023/10/01 11:51:50;;;;;;;15.27;8.05;;;;;;;13.84;91.71;100802.41;5032842;28;20033;-43
2023/10/01 11:54:22;;;;;;;19.85;7.78;;;;;;;13.86;91.94;100806.47;5033143;28;20099;-43
2023/10/01 11:57:05;;;;;;;17.20;6.97;;;;;;;13.72;91.97;100797.78;5032924;28;20029;-43
2023/10/01 11:59:33;;;;;;;17.15;8.30;;;;;;;13.74;91.65;100805.63;5033038;28;20029;-43
2023/10/01 12:04:44;;;;;;;20.17;8.30;;;;;;;13.83;91.84;100809.66;5033113;28;20091;-43
2023/10/01 12:07:18;;;;;;;16.55;7.32;;;;;;;13.77;91.71;100812.41;5032982;28;20026;-42
2023/10/01 12:09:49;;;;;;;16.75;7.63;;;;;;;13.68;91.85;100820.81;5032740;28;20109;-43
2023/10/01 12:12:28;;;;;;;21.80;7.72;;;;;;;13.64;91.63;100813.41;5032949;28;20022;-43
2023/10/01 12:14:55;;;;;;;21.10;7.82;;;;;;;13.57;91.33;100818.88;5032845;28;20028;-43
2023/10/01 12:17:28;;;;;;;15.90;7.55;;;;;;;13.56;91.24;100822.63;5032765;28;20071;-44
2023/10/01 12:20:03;;;;;;;15.52;7.50;;;;;;;13.54;91.40;100815.81;5032986;28;20032;-43
2023/10/01 12:22:30;;;;;;;19.45;7.57;;;;;;;13.48;91.64;100822.91;5032725;28;20466;-42
2023/10/01 12:24:58;;;;;;;16.23;8.30;;;;;;;13.55;91.28;100828.19;5032753;28;20029;-44
2023/10/01 12:30:28;;;;;;;15.25;6.85;;;;;;;13.43;91.22;100837.03;5019550;28;20037;-43
2023/10/01 12:32:56;;;;;;;13.15;6.57;;;;;;;13.45;91.01;100834.13;5032753;28;20026;-42
2023/10/01 12:35:28;;;;;;;19.10;8.77;;;;;;;13.51;90.73;100835.91;5032674;28;20017;-42
2023/10/01 12:40:51;;;;;;;17.20;7.53;;;;;;;13.45;90.88;100848.41;5032251;28;20033;-43
2023/10/01 12:46:08;;;;;;;15.25;6.65;;;;;;;13.33;90.78;100847.50;5032931;28;20083;-44